Merced, California
Current Conditions -  °F | °C
As of 4:10 AM on Monday 26 Jan 2015 (Local Time) from KMCE Reporting Station
Moderate Fog Moderate Fog  
Wind Chill:   Ceiling: 200
Heat Index:   Visibility: 0.25mi
Dew Point:   Wind: 3mph
Humidity: 97%   Direction: 40°NE
Pressure: 30.06"   Gusts: NA
Location:  37.3°N, 120.48°W
Report Text: KMCE 261210Z AUTO 04003KT 1/4SM FG VV002 02/02 A3006 RMK AO2 T00220017 $
Loading
Personal Weather Stations






























Interactive Weather Map New forecast layout! Learn more

10-Day Weather Forecast

Advertisements
Track Severe Weather on mobile